sensor_id;sensor_type;location;lat;lon;timestamp;pressure;altitude;pressure_sealevel;temperature;humidity
63115;BME280;49208;50.874;6.466;2023-04-09T06:01:44;101286.47;;;3.53;100.00
63115;BME280;49208;50.874;6.466;2023-04-09T06:04:09;101286.59;;;3.73;100.00
63115;BME280;49208;50.874;6.466;2023-04-09T06:06:37;101291.16;;;3.97;100.00
63115;BME280;49208;50.874;6.466;2023-04-09T06:09:02;101295.63;;;4.22;100.00
63115;BME280;49208;50.874;6.466;2023-04-09T06:11:29;101291.34;;;4.44;100.00
63115;BME280;49208;50.874;6.466;2023-04-09T06:13:54;101286.09;;;4.64;100.00
63115;BME280;49208;50.874;6.466;2023-04-09T06:16:20;101298.50;;;4.96;100.00
63115;BME280;49208;50.874;6.466;2023-04-09T06:18:45;101298.50;;;5.36;100.00
63115;BME280;49208;50.874;6.466;2023-04-09T06:21:13;101294.91;;;5.83;100.00
63115;BME280;49208;50.874;6.466;2023-04-09T06:23:38;101293.81;;;6.52;100.00
63115;BME280;49208;50.874;6.466;2023-04-09T06:26:04;101295.59;;;7.66;100.00
63115;BME280;49208;50.874;6.466;2023-04-09T06:28:30;101298.47;;;8.93;100.00
63115;BME280;49208;50.874;6.466;2023-04-09T06:30:56;101305.97;;;10.19;97.19
63115;BME280;49208;50.874;6.466;2023-04-09T06:33:21;101299.94;;;11.32;90.99
63115;BME280;49208;50.874;6.466;2023-04-09T06:35:47;101303.28;;;12.39;83.82
63115;BME280;49208;50.874;6.466;2023-04-09T06:38:12;101309.00;;;13.14;79.51
63115;BME280;49208;50.874;6.466;2023-04-09T06:40:38;101303.19;;;14.06;75.34
63115;BME280;49208;50.874;6.466;2023-04-09T06:43:04;101306.56;;;14.84;69.20
63115;BME280;49208;50.874;6.466;2023-04-09T06:45:30;101303.72;;;15.53;66.45
63115;BME280;49208;50.874;6.466;2023-04-09T06:47:57;101298.63;;;15.67;61.25
63115;BME280;49208;50.874;6.466;2023-04-09T06:50:22;101303.59;;;16.17;61.68
63115;BME280;49208;50.874;6.466;2023-04-09T06:52:48;101310.22;;;16.50;58.01
63115;BME280;49208;50.874;6.466;2023-04-09T06:55:13;101310.22;;;16.50;58.33
63115;BME280;49208;50.874;6.466;2023-04-09T06:57:38;101308.03;;;16.77;60.32
63115;BME280;49208;50.874;6.466;2023-04-09T07:00:04;101305.06;;;17.02;57.38
63115;BME280;49208;50.874;6.466;2023-04-09T07:02:30;101302.84;;;17.82;53.51
63115;BME280;49208;50.874;6.466;2023-04-09T07:04:56;101307.16;;;18.36;52.83
63115;BME280;49208;50.874;6.466;2023-04-09T07:07:21;101306.88;;;18.90;49.42
63115;BME280;49208;50.874;6.466;2023-04-09T07:09:47;101304.63;;;18.33;47.88
63115;BME280;49208;50.874;6.466;2023-04-09T07:12:13;101301.84;;;18.51;48.23
63115;BME280;49208;50.874;6.466;2023-04-09T07:14:38;101301.75;;;18.70;48.03
63115;BME280;49208;50.874;6.466;2023-04-09T07:17:04;101300.09;;;18.83;49.12
63115;BME280;49208;50.874;6.466;2023-04-09T07:19:29;101305.22;;;18.38;46.84
63115;BME280;49208;50.874;6.466;2023-04-09T07:21:55;101308.38;;;18.96;48.61
63115;BME280;49208;50.874;6.466;2023-04-09T07:24:20;101305.09;;;19.53;46.56
63115;BME280;49208;50.874;6.466;2023-04-09T07:26:45;101309.44;;;19.55;48.24
63115;BME280;49208;50.874;6.466;2023-04-09T07:29:11;101304.38;;;19.49;45.26
63115;BME280;49208;50.874;6.466;2023-04-09T07:31:36;101325.34;;;19.76;47.68
63115;BME280;49208;50.874;6.466;2023-04-09T07:34:01;101318.47;;;20.44;46.89
63115;BME280;49208;50.874;6.466;2023-04-09T07:36:27;101321.25;;;20.99;42.75
63115;BME280;49208;50.874;6.466;2023-04-09T07:38:53;101317.22;;;20.49;46.30
63115;BME280;49208;50.874;6.466;2023-04-09T07:41:18;101319.25;;;20.46;41.16
63115;BME280;49208;50.874;6.466;2023-04-09T07:43:43;101323.78;;;20.88;42.69
63115;BME280;49208;50.874;6.466;2023-04-09T07:46:09;101329.28;;;21.28;41.52
63115;BME280;49208;50.874;6.466;2023-04-09T07:48:34;101330.69;;;21.48;42.86
63115;BME280;49208;50.874;6.466;2023-04-09T07:51:00;101335.53;;;21.43;42.28
63115;BME280;49208;50.874;6.466;2023-04-09T07:53:25;101320.41;;;20.85;41.91
63115;BME280;49208;50.874;6.466;2023-04-09T07:55:50;101331.88;;;21.44;41.22
63115;BME280;49208;50.874;6.466;2023-04-09T07:58:16;101325.47;;;21.04;40.35
63115;BME280;49208;50.874;6.466;2023-04-09T08:00:41;101331.16;;;21.40;39.28
63115;BME280;49208;50.874;6.466;2023-04-09T08:03:07;101326.81;;;21.52;39.42
63115;BME280;49208;50.874;6.466;2023-04-09T08:05:32;101332.72;;;21.45;38.71
63115;BME280;49208;50.874;6.466;2023-04-09T08:07:59;101335.38;;;21.32;39.81
63115;BME280;49208;50.874;6.466;2023-04-09T08:10:24;101330.13;;;21.43;39.04
63115;BME280;49208;50.874;6.466;2023-04-09T08:12:50;101325.00;;;21.78;40.92
63115;BME280;49208;50.874;6.466;2023-04-09T08:15:15;101326.53;;;21.83;40.33
63115;BME280;49208;50.874;6.466;2023-04-09T08:17:40;101332.84;;;21.83;36.93
63115;BME280;49208;50.874;6.466;2023-04-09T08:20:06;101323.13;;;22.06;38.94
63115;BME280;49208;50.874;6.466;2023-04-09T08:22:32;101319.94;;;21.99;36.35
63115;BME280;49208;50.874;6.466;2023-04-09T08:24:58;101318.97;;;21.88;37.58
63115;BME280;49208;50.874;6.466;2023-04-09T08:27:24;101325.97;;;21.65;35.06
63115;BME280;49208;50.874;6.466;2023-04-09T08:29:49;101320.69;;;20.94;38.46
63115;BME280;49208;50.874;6.466;2023-04-09T08:32:15;101327.19;;;20.34;37.81
63115;BME280;49208;50.874;6.466;2023-04-09T08:34:40;101326.97;;;20.23;37.41
63115;BME280;49208;50.874;6.466;2023-04-09T08:37:06;101321.09;;;20.31;38.82
63115;BME280;49208;50.874;6.466;2023-04-09T08:39:32;101331.56;;;19.92;39.90
63115;BME280;49208;50.874;6.466;2023-04-09T08:41:58;101327.28;;;19.42;39.64
63115;BME280;49208;50.874;6.466;2023-04-09T08:44:27;101324.91;;;19.06;40.71
63115;BME280;49208;50.874;6.466;2023-04-09T08:46:53;101318.84;;;18.20;40.42
63115;BME280;49208;50.874;6.466;2023-04-09T08:49:19;101327.22;;;17.61;42.57
63115;BME280;49208;50.874;6.466;2023-04-09T08:51:46;101329.31;;;17.20;45.35
63115;BME280;49208;50.874;6.466;2023-04-09T08:54:14;101324.66;;;16.66;45.13
63115;BME280;49208;50.874;6.466;2023-04-09T08:56:41;101316.38;;;16.12;44.46
63115;BME280;49208;50.874;6.466;2023-04-09T08:59:08;101322.69;;;15.91;47.04
63115;BME280;49208;50.874;6.466;2023-04-09T09:01:33;101316.66;;;16.06;49.86
63115;BME280;49208;50.874;6.466;2023-04-09T09:04:03;101320.88;;;16.12;47.15
63115;BME280;49208;50.874;6.466;2023-04-09T09:06:37;101315.22;;;15.56;46.87
63115;BME280;49208;50.874;6.466;2023-04-09T09:09:05;101312.31;;;15.61;51.21
63115;BME280;49208;50.874;6.466;2023-04-09T09:11:35;101311.03;;;15.49;48.85
63115;BME280;49208;50.874;6.466;2023-04-09T09:14:05;101305.25;;;15.38;48.56
63115;BME280;49208;50.874;6.466;2023-04-09T09:16:33;101303.53;;;15.35;50.70
63115;BME280;49208;50.874;6.466;2023-04-09T09:19:00;101299.41;;;15.49;52.80
63115;BME280;49208;50.874;6.466;2023-04-09T09:21:27;101297.09;;;15.62;50.72
63115;BME280;49208;50.874;6.466;2023-04-09T09:23:53;101290.84;;;15.61;48.29
63115;BME280;49208;50.874;6.466;2023-04-09T09:26:29;101292.84;;;15.56;47.84
63115;BME280;49208;50.874;6.466;2023-04-09T09:28:55;101287.34;;;15.59;44.64
63115;BME280;49208;50.874;6.466;2023-04-09T09:31:23;101288.94;;;15.43;42.88
63115;BME280;49208;50.874;6.466;2023-04-09T09:33:49;101294.53;;;15.59;49.86
63115;BME280;49208;50.874;6.466;2023-04-09T09:36:21;101290.69;;;15.44;43.25
63115;BME280;49208;50.874;6.466;2023-04-09T09:38:55;101279.50;;;15.54;43.74
63115;BME280;49208;50.874;6.466;2023-04-09T09:41:22;101284.13;;;15.51;43.09
63115;BME280;49208;50.874;6.466;2023-04-09T09:43:48;101286.38;;;15.40;43.88
63115;BME280;49208;50.874;6.466;2023-04-09T09:46:14;101289.34;;;15.54;48.57
63115;BME280;49208;50.874;6.466;2023-04-09T09:48:41;101279.69;;;15.70;45.13
63115;BME280;49208;50.874;6.466;2023-04-09T09:51:08;101285.97;;;15.91;44.91
63115;BME280;49208;50.874;6.466;2023-04-09T09:53:38;101283.41;;;16.09;47.40
63115;BME280;49208;50.874;6.466;2023-04-09T09:56:05;101282.03;;;16.00;40.71
63115;BME280;49208;50.874;6.466;2023-04-09T09:58:39;101285.16;;;16.29;45.16
63115;BME280;49208;50.874;6.466;2023-04-09T10:01:11;101287.00;;;16.28;42.91
63115;BME280;49208;50.874;6.466;2023-04-09T10:03:38;101281.34;;;16.34;43.39
63115;BME280;49208;50.874;6.466;2023-04-09T10:06:05;101284.03;;;16.34;43.73
63115;BME280;49208;50.874;6.466;2023-04-09T10:08:32;101286.66;;;16.36;39.09
63115;BME280;49208;50.874;6.466;2023-04-09T10:10:59;101290.75;;;16.24;40.00
63115;BME280;49208;50.874;6.466;2023-04-09T10:13:33;101288.03;;;16.26;44.85
63115;BME280;49208;50.874;6.466;2023-04-09T10:15:59;101272.53;;;16.31;42.34
63115;BME280;49208;50.874;6.466;2023-04-09T10:18:24;101279.50;;;16.35;42.32
63115;BME280;49208;50.874;6.466;2023-04-09T10:21:22;101281.50;;;16.31;41.72
63115;BME280;49208;50.874;6.466;2023-04-09T10:23:50;101274.13;;;16.16;40.35
63115;BME280;49208;50.874;6.466;2023-04-09T10:26:17;101280.66;;;16.10;43.79
63115;BME280;49208;50.874;6.466;2023-04-09T10:28:43;101270.88;;;16.47;45.43
63115;BME280;49208;50.874;6.466;2023-04-09T10:31:09;101266.41;;;16.86;43.40
63115;BME280;49208;50.874;6.466;2023-04-09T10:33:37;101273.28;;;17.28;45.46
63115;BME280;49208;50.874;6.466;2023-04-09T10:36:08;101263.00;;;17.53;42.89
63115;BME280;49208;50.874;6.466;2023-04-09T10:38:35;101262.94;;;17.72;43.24
63115;BME280;49208;50.874;6.466;2023-04-09T10:43:35;101264.19;;;17.13;39.60
63115;BME280;49208;50.874;6.466;2023-04-09T10:46:00;101252.19;;;17.01;42.19
63115;BME280;49208;50.874;6.466;2023-04-09T10:48:31;101252.44;;;16.96;39.37
63115;BME280;49208;50.874;6.466;2023-04-09T10:50:57;101255.00;;;17.00;40.61
63115;BME280;49208;50.874;6.466;2023-04-09T10:53:25;101251.38;;;16.82;40.60
63115;BME280;49208;50.874;6.466;2023-04-09T10:55:52;101254.69;;;16.68;39.98
63115;BME280;49208;50.874;6.466;2023-04-09T10:58:18;101241.25;;;16.49;39.22
63115;BME280;49208;50.874;6.466;2023-04-09T11:00:46;101250.03;;;16.90;42.91
63115;BME280;49208;50.874;6.466;2023-04-09T11:03:26;101245.91;;;17.20;40.57
63115;BME280;49208;50.874;6.466;2023-04-09T11:06:03;101242.19;;;17.40;41.45
63115;BME280;49208;50.874;6.466;2023-04-09T11:08:33;101239.03;;;17.49;41.67
63115;BME280;49208;50.874;6.466;2023-04-09T11:11:00;101244.16;;;17.53;39.54
63115;BME280;49208;50.874;6.466;2023-04-09T11:13:27;101230.81;;;17.52;41.21
63115;BME280;49208;50.874;6.466;2023-04-09T11:15:53;101216.91;;;17.60;42.80
63115;BME280;49208;50.874;6.466;2023-04-09T11:18:24;101226.91;;;17.57;38.26
63115;BME280;49208;50.874;6.466;2023-04-09T11:20:57;101222.00;;;16.77;38.48
63115;BME280;49208;50.874;6.466;2023-04-09T11:23:24;101229.13;;;16.59;41.50
63115;BME280;49208;50.874;6.466;2023-04-09T11:25:50;101219.09;;;16.63;41.26
63115;BME280;49208;50.874;6.466;2023-04-09T11:28:16;101226.16;;;16.46;44.64
63115;BME280;49208;50.874;6.466;2023-04-09T11:30:41;101216.22;;;16.48;40.02
63115;BME280;49208;50.874;6.466;2023-04-09T11:33:08;101209.88;;;16.30;40.48
63115;BME280;49208;50.874;6.466;2023-04-09T11:35:34;101211.06;;;16.44;43.65
63115;BME280;49208;50.874;6.466;2023-04-09T11:38:10;101208.34;;;16.63;42.34
63115;BME280;49208;50.874;6.466;2023-04-09T11:40:36;101201.09;;;16.27;41.98
63115;BME280;49208;50.874;6.466;2023-04-09T11:43:07;101202.19;;;16.61;42.42
63115;BME280;49208;50.874;6.466;2023-04-09T11:45:33;101195.84;;;16.81;45.85
63115;BME280;49208;50.874;6.466;2023-04-09T11:47:58;101200.66;;;17.10;40.89
63115;BME280;49208;50.874;6.466;2023-04-09T11:50:26;101198.22;;;16.87;41.11
63115;BME280;49208;50.874;6.466;2023-04-09T11:52:51;101203.47;;;16.90;41.96
63115;BME280;49208;50.874;6.466;2023-04-09T11:55:27;101187.97;;;16.76;43.90
63115;BME280;49208;50.874;6.466;2023-04-09T11:57:56;101192.84;;;16.68;43.77
63115;BME280;49208;50.874;6.466;2023-04-09T12:00:22;101193.63;;;16.89;42.84
63115;BME280;49208;50.874;6.466;2023-04-09T12:02:57;101191.19;;;16.65;39.79
63115;BME280;49208;50.874;6.466;2023-04-09T12:05:25;101202.56;;;16.70;42.24
63115;BME280;49208;50.874;6.466;2023-04-09T12:08:00;101192.53;;;16.56;42.59
63115;BME280;49208;50.874;6.466;2023-04-09T12:10:30;101194.97;;;16.61;44.42
63115;BME280;49208;50.874;6.466;2023-04-09T12:13:07;101194.13;;;16.61;41.72
63115;BME280;49208;50.874;6.466;2023-04-09T12:15:38;101197.47;;;16.47;40.67
63115;BME280;49208;50.874;6.466;2023-04-09T12:18:12;101196.44;;;16.49;43.44
63115;BME280;49208;50.874;6.466;2023-04-09T12:20:40;101192.53;;;16.56;41.83
63115;BME280;49208;50.874;6.466;2023-04-09T12:23:07;101203.06;;;16.42;43.63
63115;BME280;49208;50.874;6.466;2023-04-09T12:25:37;101199.50;;;16.61;39.50
63115;BME280;49208;50.874;6.466;2023-04-09T12:28:04;101204.44;;;16.51;40.97
63115;BME280;49208;50.874;6.466;2023-04-09T12:30:31;101196.88;;;16.59;41.91
63115;BME280;49208;50.874;6.466;2023-04-09T12:32:57;101195.25;;;16.74;41.54
63115;BME280;49208;50.874;6.466;2023-04-09T12:35:23;101199.63;;;16.57;40.85
63115;BME280;49208;50.874;6.466;2023-04-09T12:37:48;101197.75;;;16.41;41.15
63115;BME280;49208;50.874;6.466;2023-04-09T12:40:15;101188.91;;;16.39;42.41
63115;BME280;49208;50.874;6.466;2023-04-09T12:42:41;101191.97;;;16.50;42.82
63115;BME280;49208;50.874;6.466;2023-04-09T12:45:09;101186.78;;;16.45;41.63
63115;BME280;49208;50.874;6.466;2023-04-09T12:47:35;101188.16;;;16.16;42.47
63115;BME280;49208;50.874;6.466;2023-04-09T12:50:02;101182.56;;;16.02;41.57
63115;BME280;49208;50.874;6.466;2023-04-09T12:52:28;101178.16;;;16.01;41.99
63115;BME280;49208;50.874;6.466;2023-04-09T12:54:53;101175.13;;;16.27;44.21
63115;BME280;49208;50.874;6.466;2023-04-09T12:57:19;101176.03;;;16.45;43.39
63115;BME280;49208;50.874;6.466;2023-04-09T12:59:45;101178.78;;;16.25;41.77
63115;BME280;49208;50.874;6.466;2023-04-09T13:02:10;101179.59;;;16.27;41.92
63115;BME280;49208;50.874;6.466;2023-04-09T13:04:35;101179.69;;;16.25;42.93
63115;BME280;49208;50.874;6.466;2023-04-09T13:07:01;101180.84;;;16.20;42.39
63115;BME280;49208;50.874;6.466;2023-04-09T13:09:26;101160.97;;;16.05;42.06
63115;BME280;49208;50.874;6.466;2023-04-09T13:11:52;101163.00;;;16.19;41.74
63115;BME280;49208;50.874;6.466;2023-04-09T13:14:17;101159.13;;;16.05;41.34
63115;BME280;49208;50.874;6.466;2023-04-09T13:16:42;101164.56;;;16.04;41.95
63115;BME280;49208;50.874;6.466;2023-04-09T13:19:08;101164.09;;;16.14;42.60
63115;BME280;49208;50.874;6.466;2023-04-09T13:21:34;101168.28;;;16.20;41.93
63115;BME280;49208;50.874;6.466;2023-04-09T13:24:00;101166.25;;;16.25;42.43
63115;BME280;49208;50.874;6.466;2023-04-09T13:26:25;101156.31;;;16.27;41.18
63115;BME280;49208;50.874;6.466;2023-04-09T13:28:51;101154.63;;;16.25;41.39
63115;BME280;49208;50.874;6.466;2023-04-09T13:31:17;101160.59;;;16.31;42.88
63115;BME280;49208;50.874;6.466;2023-04-09T13:33:42;101143.59;;;16.31;41.46
63115;BME280;49208;50.874;6.466;2023-04-09T13:36:08;101151.13;;;16.23;40.56
63115;BME280;49208;50.874;6.466;2023-04-09T13:38:33;101149.34;;;16.23;41.61
63115;BME280;49208;50.874;6.466;2023-04-09T13:40:59;101146.91;;;16.55;43.49
63115;BME280;49208;50.874;6.466;2023-04-09T13:43:24;101137.72;;;16.42;42.34
63115;BME280;49208;50.874;6.466;2023-04-09T13:45:52;101133.34;;;16.39;41.45
63115;BME280;49208;50.874;6.466;2023-04-09T13:48:19;101133.25;;;16.41;42.33
63115;BME280;49208;50.874;6.466;2023-04-09T13:50:45;101132.78;;;16.32;41.14
63115;BME280;49208;50.874;6.466;2023-04-09T13:53:10;101136.31;;;16.33;41.58
63115;BME280;49208;50.874;6.466;2023-04-09T13:55:35;101130.03;;;16.15;42.33
63115;BME280;49208;50.874;6.466;2023-04-09T13:58:01;101124.97;;;16.09;43.59
63115;BME280;49208;50.874;6.466;2023-04-09T14:00:26;101117.63;;;16.12;42.75
63115;BME280;49208;50.874;6.466;2023-04-09T14:02:51;101113.75;;;16.18;42.93
63115;BME280;49208;50.874;6.466;2023-04-09T14:05:17;101116.69;;;16.13;42.41
63115;BME280;49208;50.874;6.466;2023-04-09T14:07:42;101108.91;;;16.07;41.88
63115;BME280;49208;50.874;6.466;2023-04-09T14:10:09;101115.00;;;16.11;42.48
63115;BME280;49208;50.874;6.466;2023-04-09T14:12:35;101117.31;;;16.00;40.95
63115;BME280;49208;50.874;6.466;2023-04-09T14:15:00;101099.09;;;15.87;42.67
63115;BME280;49208;50.874;6.466;2023-04-09T14:17:25;101092.66;;;15.72;42.63
63115;BME280;49208;50.874;6.466;2023-04-09T14:19:51;101084.78;;;15.68;43.63
63115;BME280;49208;50.874;6.466;2023-04-09T14:22:16;101084.38;;;15.77;43.33
63115;BME280;49208;50.874;6.466;2023-04-09T14:24:42;101097.38;;;15.86;43.56
63115;BME280;49208;50.874;6.466;2023-04-09T14:27:07;101091.94;;;15.88;42.94
63115;BME280;49208;50.874;6.466;2023-04-09T14:29:34;101103.78;;;15.84;42.39
63115;BME280;49208;50.874;6.466;2023-04-09T14:31:59;101094.25;;;15.76;42.30
63115;BME280;49208;50.874;6.466;2023-04-09T14:34:26;101088.63;;;15.62;42.42
63115;BME280;49208;50.874;6.466;2023-04-09T14:36:51;101089.78;;;15.56;42.86
63115;BME280;49208;50.874;6.466;2023-04-09T14:39:16;101090.06;;;15.50;42.66
63115;BME280;49208;50.874;6.466;2023-04-09T14:41:42;101079.19;;;15.53;42.80
63115;BME280;49208;50.874;6.466;2023-04-09T14:44:08;101083.97;;;15.47;43.59
63115;BME280;49208;50.874;6.466;2023-04-09T14:46:34;101082.09;;;15.49;43.40
63115;BME280;49208;50.874;6.466;2023-04-09T14:49:00;101079.25;;;15.52;44.16
63115;BME280;49208;50.874;6.466;2023-04-09T14:51:27;101085.88;;;15.64;42.95
63115;BME280;49208;50.874;6.466;2023-04-09T14:53:54;101086.53;;;15.69;43.68
63115;BME280;49208;50.874;6.466;2023-04-09T14:56:20;101083.06;;;15.67;42.32
63115;BME280;49208;50.874;6.466;2023-04-09T14:58:46;101089.63;;;15.60;42.62
63115;BME280;49208;50.874;6.466;2023-04-09T15:01:11;101085.50;;;15.52;42.13
63115;BME280;49208;50.874;6.466;2023-04-09T15:03:36;101072.16;;;15.51;43.04
63115;BME280;49208;50.874;6.466;2023-04-09T15:06:02;101072.09;;;15.52;44.17
63115;BME280;49208;50.874;6.466;2023-04-09T15:08:27;101075.34;;;15.59;44.33
63115;BME280;49208;50.874;6.466;2023-04-09T15:10:53;101084.31;;;15.58;43.79
63115;BME280;49208;50.874;6.466;2023-04-09T15:13:18;101081.22;;;15.48;41.71
63115;BME280;49208;50.874;6.466;2023-04-09T15:15:44;101077.34;;;15.35;43.01
63115;BME280;49208;50.874;6.466;2023-04-09T15:18:09;101068.94;;;15.43;43.40
63115;BME280;49208;50.874;6.466;2023-04-09T15:20:37;101077.81;;;15.45;42.99
63115;BME280;49208;50.874;6.466;2023-04-09T15:23:03;101067.34;;;15.39;43.12
63115;BME280;49208;50.874;6.466;2023-04-09T15:25:28;101064.50;;;15.42;44.79
63115;BME280;49208;50.874;6.466;2023-04-09T15:27:53;101070.84;;;15.41;42.20
63115;BME280;49208;50.874;6.466;2023-04-09T15:30:19;101069.44;;;15.32;43.29
63115;BME280;49208;50.874;6.466;2023-04-09T15:32:44;101068.25;;;15.19;42.66
63115;BME280;49208;50.874;6.466;2023-04-09T15:35:10;101061.09;;;15.19;42.56
63115;BME280;49208;50.874;6.466;2023-04-09T15:37:37;101067.44;;;15.16;42.95
63115;BME280;49208;50.874;6.466;2023-04-09T15:40:03;101074.16;;;15.06;43.07
63115;BME280;49208;50.874;6.466;2023-04-09T15:42:28;101070.75;;;15.03;45.62
63115;BME280;49208;50.874;6.466;2023-04-09T15:44:54;101071.19;;;15.12;42.72
63115;BME280;49208;50.874;6.466;2023-04-09T15:47:19;101070.47;;;15.09;45.04
63115;BME280;49208;50.874;6.466;2023-04-09T15:49:45;101064.16;;;15.10;43.38
63115;BME280;49208;50.874;6.466;2023-04-09T15:52:11;101060.69;;;15.08;43.54
63115;BME280;49208;50.874;6.466;2023-04-09T15:54:36;101060.22;;;14.98;44.90
63115;BME280;49208;50.874;6.466;2023-04-09T15:57:02;101063.03;;;14.95;45.59
63115;BME280;49208;50.874;6.466;2023-04-09T15:59:28;101062.88;;;14.98;44.15
63115;BME280;49208;50.874;6.466;2023-04-09T16:01:53;101067.59;;;14.93;44.34
63115;BME280;49208;50.874;6.466;2023-04-09T16:04:19;101064.75;;;14.96;43.83
63115;BME280;49208;50.874;6.466;2023-04-09T16:06:44;101062.56;;;14.85;44.23
63115;BME280;49208;50.874;6.466;2023-04-09T16:09:09;101063.84;;;14.77;45.26
63115;BME280;49208;50.874;6.466;2023-04-09T16:11:35;101064.91;;;14.72;44.69
63115;BME280;49208;50.874;6.466;2023-04-09T16:14:01;101059.75;;;14.68;45.78
63115;BME280;49208;50.874;6.466;2023-04-09T16:16:28;101052.78;;;14.64;44.05
63115;BME280;49208;50.874;6.466;2023-04-09T16:18:53;101054.72;;;14.38;44.70
63115;BME280;49208;50.874;6.466;2023-04-09T16:21:18;101035.88;;;14.40;44.80
63115;BME280;49208;50.874;6.466;2023-04-09T16:23:44;101030.78;;;14.33;45.46
63115;BME280;49208;50.874;6.466;2023-04-09T16:26:09;101034.38;;;14.34;45.55
63115;BME280;49208;50.874;6.466;2023-04-09T16:28:35;101042.19;;;14.39;46.13
63115;BME280;49208;50.874;6.466;2023-04-09T16:31:00;101036.03;;;14.37;45.45
63115;BME280;49208;50.874;6.466;2023-04-09T16:33:26;101030.72;;;14.35;45.06
63115;BME280;49208;50.874;6.466;2023-04-09T16:35:51;101030.94;;;14.30;46.50
63115;BME280;49208;50.874;6.466;2023-04-09T16:38:17;101033.00;;;14.24;46.97
63115;BME280;49208;50.874;6.466;2023-04-09T16:40:42;101030.50;;;14.19;45.93
63115;BME280;49208;50.874;6.466;2023-04-09T16:43:08;101030.88;;;14.10;46.08
63115;BME280;49208;50.874;6.466;2023-04-09T16:45:33;101030.28;;;14.03;46.46
63115;BME280;49208;50.874;6.466;2023-04-09T16:47:58;101024.22;;;13.98;46.70
63115;BME280;49208;50.874;6.466;2023-04-09T16:50:24;101028.09;;;13.91;47.35
63115;BME280;49208;50.874;6.466;2023-04-09T16:52:50;101035.53;;;13.83;46.91
63115;BME280;49208;50.874;6.466;2023-04-09T16:55:15;101045.50;;;13.79;47.47
63115;BME280;49208;50.874;6.466;2023-04-09T16:57:41;101038.69;;;13.70;47.27
63115;BME280;49208;50.874;6.466;2023-04-09T17:00:07;101039.84;;;13.63;46.88
63115;BME280;49208;50.874;6.466;2023-04-09T17:02:33;101041.84;;;13.58;46.85
63115;BME280;49208;50.874;6.466;2023-04-09T17:04:59;101050.16;;;13.50;47.64
63115;BME280;49208;50.874;6.466;2023-04-09T17:07:24;101042.28;;;13.47;48.01
63115;BME280;49208;50.874;6.466;2023-04-09T17:09:50;101038.81;;;13.44;47.87
63115;BME280;49208;50.874;6.466;2023-04-09T17:12:15;101041.91;;;13.33;48.65
63115;BME280;49208;50.874;6.466;2023-04-09T17:14:41;101035.13;;;13.23;47.92
63115;BME280;49208;50.874;6.466;2023-04-09T17:17:08;101029.19;;;13.14;48.60
63115;BME280;49208;50.874;6.466;2023-04-09T17:19:34;101031.22;;;13.08;48.53
63115;BME280;49208;50.874;6.466;2023-04-09T17:22:00;101028.00;;;12.98;48.96
63115;BME280;49208;50.874;6.466;2023-04-09T17:24:26;101025.59;;;12.90;49.85
63115;BME280;49208;50.874;6.466;2023-04-09T17:26:52;101029.47;;;12.82;51.07
63115;BME280;49208;50.874;6.466;2023-04-09T17:29:17;101031.50;;;12.75;50.47
63115;BME280;49208;50.874;6.466;2023-04-09T17:31:43;101033.56;;;12.67;50.21
63115;BME280;49208;50.874;6.466;2023-04-09T17:34:08;101028.56;;;12.58;51.28
63115;BME280;49208;50.874;6.466;2023-04-09T17:36:35;101029.72;;;12.49;52.34
63115;BME280;49208;50.874;6.466;2023-04-09T17:39:00;101032.47;;;12.47;51.07
63115;BME280;49208;50.874;6.466;2023-04-09T17:41:26;101042.63;;;12.36;51.69
63115;BME280;49208;50.874;6.466;2023-04-09T17:43:52;101043.78;;;12.29;51.61
63115;BME280;49208;50.874;6.466;2023-04-09T17:46:17;101039.53;;;12.22;52.24
63115;BME280;49208;50.874;6.466;2023-04-09T17:48:43;101032.75;;;12.11;52.58
63115;BME280;49208;50.874;6.466;2023-04-09T17:51:16;101024.19;;;12.02;53.46
63115;BME280;49208;50.874;6.466;2023-04-09T17:53:42;101034.13;;;11.97;53.60
63115;BME280;49208;50.874;6.466;2023-04-09T17:56:08;101028.16;;;11.87;53.38
63115;BME280;49208;50.874;6.466;2023-04-09T17:58:35;101047.06;;;11.81;54.16
63115;BME280;49208;50.874;6.466;2023-04-09T18:01:00;101033.84;;;11.76;54.01
63115;BME280;49208;50.874;6.466;2023-04-09T18:03:25;101037.66;;;11.67;54.70
63115;BME280;49208;50.874;6.466;2023-04-09T18:05:51;101044.94;;;11.62;54.13
63115;BME280;49208;50.874;6.466;2023-04-09T18:08:18;101042.53;;;11.53;54.75
63115;BME280;49208;50.874;6.466;2023-04-09T18:10:43;101039.25;;;11.45;56.61
63115;BME280;49208;50.874;6.466;2023-04-09T18:13:08;101045.69;;;11.38;55.02
63115;BME280;49208;50.874;6.466;2023-04-09T18:15:34;101037.03;;;11.29;55.83
63115;BME280;49208;50.874;6.466;2023-04-09T18:18:00;101037.25;;;11.22;56.00
63115;BME280;49208;50.874;6.466;2023-04-09T18:20:25;101034.69;;;11.19;56.14
63115;BME280;49208;50.874;6.466;2023-04-09T18:22:50;101037.38;;;11.17;55.89
63115;BME280;49208;50.874;6.466;2023-04-09T18:25:16;101041.22;;;11.07;56.19
63115;BME280;49208;50.874;6.466;2023-04-09T18:27:41;101037.69;;;11.06;56.17
63115;BME280;49208;50.874;6.466;2023-04-09T18:30:07;101038.94;;;10.93;56.85
63115;BME280;49208;50.874;6.466;2023-04-09T18:32:32;101040.00;;;10.87;57.41
63115;BME280;49208;50.874;6.466;2023-04-09T18:34:58;101033.75;;;10.88;56.76
63115;BME280;49208;50.874;6.466;2023-04-09T18:37:23;101035.78;;;10.79;57.61
63115;BME280;49208;50.874;6.466;2023-04-09T18:39:49;101042.06;;;10.76;56.97
63115;BME280;49208;50.874;6.466;2023-04-09T18:42:14;101045.03;;;10.64;58.70
63115;BME280;49208;50.874;6.466;2023-04-09T18:44:40;101036.25;;;10.60;58.25
63115;BME280;49208;50.874;6.466;2023-04-09T18:47:07;101050.50;;;10.59;58.33
63115;BME280;49208;50.874;6.466;2023-04-09T18:49:34;101046.22;;;10.52;58.51